createdAt,value
2018-10-12T00:00:12.706Z,19.63
2018-10-12T00:02:42.547Z,20.67
2018-10-12T00:05:11.799Z,20.30
2018-10-12T00:07:40.995Z,20.20
2018-10-12T00:10:10.130Z,20.73
2018-10-12T00:12:38.864Z,20.60
2018-10-12T00:15:07.811Z,19.67
2018-10-12T00:17:36.914Z,19.63
2018-10-12T00:20:06.514Z,20.70
2018-10-12T00:22:35.177Z,20.70
2018-10-12T00:25:03.865Z,20.93
2018-10-12T00:27:32.854Z,21.47
2018-10-12T00:30:01.546Z,19.33
2018-10-12T00:32:30.205Z,20.50
2018-10-12T00:34:58.841Z,20.17
2018-10-12T00:37:27.433Z,20.07
2018-10-12T00:39:56.074Z,21.37
2018-10-12T00:42:24.778Z,21.50
2018-10-12T00:44:53.456Z,21.40
2018-10-12T00:47:22.205Z,22.10
2018-10-12T00:49:50.946Z,21.80
2018-10-12T00:52:19.620Z,21.43
2018-10-12T00:54:48.283Z,22.87
2018-10-12T00:57:17.017Z,22.40
2018-10-12T00:59:45.753Z,21.77
2018-10-12T01:02:14.422Z,21.37
2018-10-12T01:04:43.094Z,21.60
2018-10-12T01:07:11.755Z,21.60
2018-10-12T01:09:40.505Z,21.93
2018-10-12T01:12:27.636Z,21.80
2018-10-12T01:14:56.337Z,20.63
2018-10-12T01:17:25.098Z,39.87
2018-10-12T01:19:54.170Z,29.17
2018-10-12T01:22:22.922Z,22.80
2018-10-12T01:24:51.615Z,22.43
2018-10-12T01:27:20.281Z,22.27
2018-10-12T01:29:49.158Z,22.13
2018-10-12T01:32:23.039Z,21.67
2018-10-12T01:34:52.046Z,22.03
2018-10-12T01:37:20.673Z,21.97
2018-10-12T01:39:49.468Z,34.27
2018-10-12T01:42:18.173Z,24.97
2018-10-12T01:44:46.881Z,22.07
2018-10-12T01:47:15.685Z,22.10
2018-10-12T01:49:44.361Z,20.20
2018-10-12T01:52:13.798Z,20.27
2018-10-12T01:54:42.748Z,20.83
2018-10-12T01:57:12.276Z,22.00
2018-10-12T01:59:41.241Z,20.33
2018-10-12T02:02:09.963Z,20.73
2018-10-12T02:04:38.615Z,21.77
2018-10-12T02:07:07.280Z,20.70
2018-10-12T02:09:35.905Z,20.30
2018-10-12T02:12:04.682Z,20.20
2018-10-12T02:14:33.470Z,19.80
2018-10-12T02:17:02.138Z,20.40
2018-10-12T02:19:31.144Z,20.07
2018-10-12T02:21:59.853Z,20.53
2018-10-12T02:24:28.545Z,19.53
2018-10-12T02:26:57.221Z,19.70
2018-10-12T02:29:25.904Z,19.50
2018-10-12T02:31:54.577Z,20.23
2018-10-12T02:34:23.257Z,19.80
2018-10-12T02:36:51.928Z,20.10
2018-10-12T02:39:20.698Z,18.80
2018-10-12T02:41:49.369Z,20.47
2018-10-12T02:44:18.013Z,20.00
2018-10-12T02:46:46.724Z,21.70
2018-10-12T02:49:15.386Z,22.17
2018-10-12T02:51:44.066Z,23.63
2018-10-12T02:54:12.720Z,23.33
2018-10-12T02:56:41.324Z,22.83
2018-10-12T02:59:10.009Z,19.80
2018-10-12T03:01:38.634Z,21.17
2018-10-12T03:04:07.507Z,20.37
2018-10-12T03:06:36.122Z,19.47
2018-10-12T03:09:07.237Z,18.53
2018-10-12T03:11:36.015Z,18.97
2018-10-12T03:14:04.683Z,18.07
2018-10-12T03:16:33.406Z,18.63
2018-10-12T03:19:02.174Z,17.87
2018-10-12T03:21:31.208Z,17.70
2018-10-12T03:23:59.945Z,19.57
2018-10-12T03:26:28.671Z,18.80
2018-10-12T03:28:57.439Z,18.10
2018-10-12T03:31:26.566Z,18.67
2018-10-12T03:33:55.417Z,18.10
2018-10-12T03:36:24.223Z,18.17
2018-10-12T03:38:52.920Z,21.30
2018-10-12T03:41:21.568Z,19.57
2018-10-12T03:43:50.248Z,17.13
2018-10-12T03:46:18.954Z,17.53
2018-10-12T03:48:47.715Z,20.00
2018-10-12T03:51:16.542Z,18.83
2018-10-12T03:53:45.343Z,17.33
2018-10-12T03:56:14.084Z,19.07
2018-10-12T03:58:42.810Z,19.00
2018-10-12T04:01:11.513Z,18.30
2018-10-12T04:03:40.439Z,18.03
2018-10-12T04:06:09.136Z,19.13
2018-10-12T04:08:38.476Z,18.53
2018-10-12T04:11:07.144Z,17.80
2018-10-12T04:13:35.764Z,18.13
2018-10-12T04:16:04.524Z,17.67
2018-10-12T04:18:33.229Z,18.03
2018-10-12T04:21:01.884Z,19.17
2018-10-12T04:23:30.614Z,20.87
2018-10-12T04:25:59.283Z,23.80
2018-10-12T04:28:27.976Z,22.30
2018-10-12T04:30:56.871Z,21.57
2018-10-12T04:33:25.520Z,23.00
2018-10-12T04:35:54.273Z,23.60
2018-10-12T04:38:23.022Z,23.27
2018-10-12T04:41:03.177Z,23.27
2018-10-12T04:43:32.555Z,23.13
2018-10-12T04:46:02.361Z,23.87
2018-10-12T04:48:31.244Z,23.23
2018-10-12T04:51:00.565Z,23.30
2018-10-12T04:53:29.501Z,21.60
2018-10-12T04:55:58.361Z,21.83
2018-10-12T04:58:27.204Z,21.77
2018-10-12T05:00:56.033Z,22.47
2018-10-12T05:03:24.801Z,22.13
2018-10-12T05:05:53.582Z,22.60
2018-10-12T05:08:22.906Z,23.07
2018-10-12T05:10:51.706Z,22.77
2018-10-12T05:13:20.516Z,25.83
2018-10-12T05:15:49.297Z,28.33
2018-10-12T05:18:18.066Z,26.47
2018-10-12T05:20:46.787Z,27.50
2018-10-12T05:23:15.527Z,23.37
2018-10-12T05:25:44.351Z,24.53
2018-10-12T05:28:13.413Z,24.13
2018-10-12T05:30:42.349Z,23.70
2018-10-12T05:33:11.425Z,24.20
2018-10-12T05:35:40.068Z,24.70
2018-10-12T05:38:09.050Z,25.70
2018-10-12T05:40:38.064Z,24.27
2018-10-12T05:43:06.934Z,23.07
2018-10-12T05:45:35.641Z,27.10
2018-10-12T05:48:15.467Z,25.10
2018-10-12T05:50:44.722Z,22.80
2018-10-12T05:53:14.052Z,24.60
2018-10-12T05:55:43.060Z,21.73
2018-10-12T05:58:11.885Z,21.47
2018-10-12T06:00:40.682Z,21.97
2018-10-12T06:03:09.486Z,22.90
2018-10-12T06:05:38.270Z,21.93
2018-10-12T06:08:07.034Z,21.93
2018-10-12T06:10:36.092Z,22.30
2018-10-12T06:13:04.805Z,23.97
2018-10-12T06:15:33.569Z,22.57
2018-10-12T06:18:02.355Z,23.77
2018-10-12T06:20:31.098Z,23.37
2018-10-12T06:22:59.831Z,22.37
2018-10-12T06:25:28.529Z,22.83
2018-10-12T06:27:57.266Z,22.73
2018-10-12T06:30:25.993Z,22.70
2018-10-12T06:32:54.815Z,22.50
2018-10-12T06:35:23.705Z,21.67
2018-10-12T06:37:52.397Z,21.67
2018-10-12T06:40:21.483Z,21.60
2018-10-12T06:42:50.504Z,20.63
2018-10-12T06:45:19.261Z,22.27
2018-10-12T06:47:48.701Z,22.70
2018-10-12T06:50:17.486Z,23.37
2018-10-12T06:52:46.438Z,24.63
2018-10-12T06:55:15.273Z,23.23
2018-10-12T06:57:44.976Z,22.43
2018-10-12T07:00:16.890Z,23.73
2018-10-12T07:02:45.687Z,22.53
2018-10-12T07:05:14.838Z,21.87
2018-10-12T07:07:44.153Z,22.30
2018-10-12T07:10:13.007Z,23.40
2018-10-12T07:12:41.785Z,21.53
2018-10-12T07:15:10.671Z,21.77
2018-10-12T07:17:39.807Z,22.80
2018-10-12T07:20:08.691Z,22.27
2018-10-12T07:22:37.542Z,21.62
2018-10-12T07:25:06.359Z,21.80
2018-10-12T07:27:36.814Z,20.00
2018-10-12T07:30:08.945Z,19.45
2018-10-12T07:32:38.470Z,19.67
2018-10-12T07:35:07.533Z,20.57
2018-10-12T07:37:42.386Z,23.25
2018-10-12T07:40:21.880Z,23.12
2018-10-12T07:42:50.657Z,21.15
2018-10-12T07:45:19.589Z,18.95
2018-10-12T07:47:48.419Z,19.07
2018-10-12T07:50:17.249Z,20.85
2018-10-12T07:52:46.022Z,19.90
2018-10-12T07:55:19.321Z,19.20
2018-10-12T07:58:06.368Z,21.05
2018-10-12T08:00:35.254Z,21.73
2018-10-12T08:03:03.996Z,21.68
2018-10-12T08:05:32.694Z,19.90
2018-10-12T08:08:02.233Z,18.35
2018-10-12T08:10:31.097Z,22.13
2018-10-12T08:12:59.985Z,21.68
2018-10-12T08:15:32.814Z,20.23
2018-10-12T08:18:02.536Z,17.10
2018-10-12T08:20:31.777Z,18.05
2018-10-12T08:23:00.442Z,17.52
2018-10-12T08:25:29.264Z,16.48
2018-10-12T08:27:58.013Z,16.25
2018-10-12T08:30:26.881Z,16.00
2018-10-12T08:32:55.946Z,17.40
2018-10-12T08:35:24.776Z,17.10
2018-10-12T08:37:53.562Z,16.87
2018-10-12T08:40:22.302Z,16.55
2018-10-12T08:42:51.205Z,15.63
2018-10-12T08:45:19.883Z,17.12
2018-10-12T08:47:48.695Z,17.40
2018-10-12T08:50:17.393Z,16.60
2018-10-12T08:52:46.435Z,16.62
2018-10-12T08:55:15.382Z,15.53
2018-10-12T08:57:44.306Z,15.08
2018-10-12T09:00:13.822Z,15.75
2018-10-12T09:02:42.535Z,18.45
2018-10-12T09:05:12.455Z,16.10
2018-10-12T09:07:41.321Z,15.23
2018-10-12T09:10:10.130Z,13.62
2018-10-12T09:12:39.254Z,14.90
2018-10-12T09:15:08.210Z,13.40
2018-10-12T09:17:36.973Z,12.68
2018-10-12T09:20:07.325Z,12.75
2018-10-12T09:22:36.356Z,11.68
2018-10-12T09:25:05.326Z,13.28
2018-10-12T09:27:34.500Z,13.03
2018-10-12T09:30:06.534Z,11.70
2018-10-12T09:32:35.149Z,11.43
2018-10-12T09:35:03.905Z,10.48
2018-10-12T09:37:32.557Z,11.28
2018-10-12T09:40:01.298Z,10.03
2018-10-12T09:42:30.071Z,9.80
2018-10-12T09:44:58.969Z,11.70
2018-10-12T09:47:27.863Z,10.15
2018-10-12T09:49:56.709Z,12.13
2018-10-12T09:52:25.365Z,10.25
2018-10-12T09:54:54.470Z,10.25
2018-10-12T09:57:26.165Z,10.63
2018-10-12T09:59:55.443Z,9.75
2018-10-12T10:03:26.925Z,10.90
2018-10-12T10:05:55.560Z,11.85
2018-10-12T10:08:24.379Z,10.00
2018-10-12T10:10:53.056Z,10.32
2018-10-12T10:13:21.709Z,11.48
2018-10-12T10:15:50.438Z,10.00
2018-10-12T10:18:20.204Z,12.37
2018-10-12T10:20:48.845Z,10.63
2018-10-12T10:23:17.858Z,11.18
2018-10-12T10:25:46.785Z,10.10
2018-10-12T10:28:15.543Z,11.38
2018-10-12T10:30:44.282Z,12.07
2018-10-12T10:33:13.069Z,9.50
2018-10-12T10:35:41.766Z,10.18
2018-10-12T10:38:10.476Z,9.68
2018-10-12T10:40:39.143Z,9.75
2018-10-12T10:43:07.834Z,10.03
2018-10-12T10:45:36.605Z,9.85
2018-10-12T10:48:05.307Z,10.35
2018-10-12T10:50:34.397Z,10.40
2018-10-12T10:53:03.160Z,10.73
2018-10-12T10:55:31.879Z,11.07
2018-10-12T10:58:00.586Z,11.17
2018-10-12T11:00:29.386Z,11.35
2018-10-12T11:02:58.458Z,11.38
2018-10-12T11:05:27.516Z,12.10
2018-10-12T11:07:56.137Z,11.90
2018-10-12T11:10:24.856Z,10.80
2018-10-12T11:12:53.641Z,10.60
2018-10-12T11:15:22.348Z,11.47
2018-10-12T11:17:51.061Z,10.80
2018-10-12T11:20:19.829Z,11.45
2018-10-12T11:22:48.665Z,10.60
2018-10-12T11:25:17.376Z,11.15
2018-10-12T11:27:46.163Z,10.85
2018-10-12T11:30:14.903Z,12.13
2018-10-12T11:32:43.770Z,10.25
2018-10-12T11:35:12.440Z,10.65
2018-10-12T11:37:41.155Z,10.78
2018-10-12T11:40:09.981Z,12.43
2018-10-12T11:42:49.751Z,9.98
2018-10-12T11:45:18.588Z,9.48
2018-10-12T11:47:48.468Z,9.45
2018-10-12T11:50:17.236Z,9.15
2018-10-12T11:52:46.051Z,10.00
2018-10-12T11:55:15.029Z,9.60
2018-10-12T11:57:43.650Z,9.45
2018-10-12T12:00:12.425Z,10.63
2018-10-12T12:02:41.066Z,11.18
2018-10-12T12:05:10.080Z,11.30
2018-10-12T12:07:38.877Z,10.03
2018-10-12T12:10:07.863Z,10.93
2018-10-12T12:12:37.033Z,10.90
2018-10-12T12:15:06.105Z,10.13
2018-10-12T12:17:34.839Z,12.10
2018-10-12T12:20:03.589Z,11.57
2018-10-12T12:22:32.265Z,10.13
2018-10-12T12:25:00.985Z,10.48
2018-10-12T12:27:29.940Z,10.08
2018-10-12T12:29:59.287Z,10.68
2018-10-12T12:32:27.947Z,9.85
2018-10-12T12:34:57.301Z,10.78
2018-10-12T12:37:25.983Z,11.08
2018-10-12T12:39:54.619Z,11.03
2018-10-12T12:42:23.288Z,10.78
2018-10-12T12:44:52.077Z,9.88
2018-10-12T12:47:21.167Z,10.32
2018-10-12T12:49:49.777Z,10.32
2018-10-12T12:52:18.502Z,9.75
2018-10-12T12:54:47.253Z,10.40
2018-10-12T12:57:16.266Z,10.90
2018-10-12T12:59:44.926Z,10.35
2018-10-12T13:02:13.564Z,10.17
2018-10-12T13:04:43.362Z,11.03
2018-10-12T13:07:12.006Z,12.27
2018-10-12T13:09:40.616Z,11.07
2018-10-12T13:12:09.406Z,9.77
2018-10-12T13:14:38.323Z,10.27
2018-10-12T13:17:07.009Z,11.17
2018-10-12T13:19:36.094Z,10.77
2018-10-12T13:22:04.817Z,9.80
2018-10-12T13:24:33.471Z,10.07
2018-10-12T13:27:02.187Z,10.27
2018-10-12T13:29:30.831Z,10.83
2018-10-12T13:31:59.496Z,10.30
2018-10-12T13:34:28.160Z,10.57
2018-10-12T13:36:56.940Z,10.30
2018-10-12T13:39:25.592Z,10.50
2018-10-12T13:41:54.222Z,10.30
2018-10-12T13:44:22.899Z,9.87
2018-10-12T13:46:51.524Z,10.80
2018-10-12T13:49:20.170Z,9.57
2018-10-12T13:51:48.857Z,10.87
2018-10-12T13:54:17.526Z,10.60
2018-10-12T13:56:46.185Z,10.10
2018-10-12T13:59:15.229Z,10.00
2018-10-12T14:01:44.278Z,10.40
2018-10-12T14:04:13.258Z,12.80
2018-10-12T14:06:41.999Z,11.13
2018-10-12T14:09:10.656Z,10.20
2018-10-12T14:11:39.311Z,10.30
2018-10-12T14:14:07.974Z,10.83
2018-10-12T14:16:36.657Z,11.80
2018-10-12T14:19:05.603Z,10.57
2018-10-12T14:21:34.127Z,11.00
2018-10-12T14:24:04.214Z,10.67
2018-10-12T14:26:32.928Z,12.73
2018-10-12T14:29:01.600Z,10.87
2018-10-12T14:31:30.239Z,10.60
2018-10-12T14:33:58.896Z,14.20
2018-10-12T14:36:27.510Z,12.00
2018-10-12T14:38:56.241Z,10.73
2018-10-12T14:41:24.851Z,11.07
2018-10-12T14:43:53.560Z,11.37
2018-10-12T14:46:22.214Z,11.13
2018-10-12T14:48:50.951Z,11.73
2018-10-12T14:51:20.556Z,10.87
2018-10-12T14:53:49.149Z,14.00
2018-10-12T14:56:17.868Z,12.97
2018-10-12T14:58:46.671Z,10.90
2018-10-12T15:01:15.404Z,11.37
2018-10-12T15:03:44.137Z,11.00
2018-10-12T15:06:13.105Z,11.17
2018-10-12T15:08:41.802Z,11.00
2018-10-12T15:11:10.492Z,10.90
2018-10-12T15:13:39.181Z,10.87
2018-10-12T15:16:07.931Z,11.47
2018-10-12T15:18:36.606Z,12.30
2018-10-12T15:21:05.399Z,11.00
2018-10-12T15:23:34.054Z,12.47
2018-10-12T15:26:02.769Z,11.80
2018-10-12T15:28:31.499Z,11.40
2018-10-12T15:31:00.161Z,11.13
2018-10-12T15:33:28.841Z,12.60
2018-10-12T15:35:57.531Z,10.80
2018-10-12T15:38:26.254Z,10.27
2018-10-12T15:40:54.956Z,10.30
2018-10-12T15:43:23.665Z,10.67
2018-10-12T15:45:52.333Z,9.93
2018-10-12T15:48:21.124Z,10.70
2018-10-12T15:50:49.847Z,10.57
2018-10-12T15:53:18.708Z,10.73
2018-10-12T15:55:47.348Z,11.10
2018-10-12T15:58:16.030Z,10.77
2018-10-12T16:00:44.726Z,10.83
2018-10-12T16:03:13.685Z,10.50
2018-10-12T16:05:42.437Z,10.60
2018-10-12T16:08:11.125Z,10.40
2018-10-12T16:10:39.910Z,11.13
2018-10-12T16:13:08.646Z,11.10
2018-10-12T16:15:37.363Z,12.13
2018-10-12T16:18:06.046Z,12.33
2018-10-12T16:20:35.042Z,11.87
2018-10-12T16:23:03.752Z,13.93
2018-10-12T16:25:54.101Z,13.77
2018-10-12T16:28:23.698Z,12.33
2018-10-12T16:30:53.325Z,12.57
2018-10-12T16:33:22.476Z,13.97
2018-10-12T16:35:52.506Z,12.67
2018-10-12T16:38:22.199Z,12.77
2018-10-12T16:40:51.123Z,12.33
2018-10-12T16:43:19.814Z,12.13
2018-10-12T16:45:49.711Z,12.30
2018-10-12T16:48:18.430Z,11.83
2018-10-12T16:50:47.251Z,10.93
2018-10-12T16:53:16.123Z,11.77
2018-10-12T16:55:44.983Z,11.07
2018-10-12T16:58:14.491Z,11.23
2018-10-12T17:00:43.415Z,11.43
2018-10-12T17:03:12.127Z,9.53
2018-10-12T17:05:40.864Z,9.03
2018-10-12T17:08:09.815Z,8.87
2018-10-12T17:10:38.495Z,10.07
2018-10-12T17:13:07.180Z,9.70
2018-10-12T17:15:35.874Z,8.57
2018-10-12T17:18:04.846Z,8.63
2018-10-12T17:20:33.483Z,8.77
2018-10-12T17:23:02.157Z,8.87
2018-10-12T17:25:30.797Z,9.00
2018-10-12T17:27:59.481Z,9.73
2018-10-12T17:30:28.210Z,8.90
2018-10-12T17:32:56.902Z,9.53
2018-10-12T17:35:25.583Z,10.03
2018-10-12T17:37:54.203Z,9.17
2018-10-12T17:40:22.903Z,9.13
2018-10-12T17:42:51.914Z,10.47
2018-10-12T17:45:20.583Z,8.97
2018-10-12T17:47:49.565Z,10.47
2018-10-12T17:50:18.216Z,8.93
2018-10-12T17:52:46.900Z,8.70
2018-10-12T17:55:15.568Z,10.47
2018-10-12T17:57:44.245Z,9.30
2018-10-12T18:00:15.563Z,10.53
2018-10-12T18:02:44.136Z,11.30
2018-10-12T18:05:12.742Z,11.10
2018-10-12T18:07:41.471Z,11.80
2018-10-12T18:10:11.057Z,10.77
2018-10-12T18:12:39.734Z,11.10
2018-10-12T18:15:10.467Z,9.53
2018-10-12T18:17:39.761Z,9.17
2018-10-12T18:20:08.987Z,8.57
2018-10-12T18:22:37.668Z,9.53
2018-10-12T18:25:06.750Z,9.90
2018-10-12T18:27:35.422Z,9.67
2018-10-12T18:30:08.193Z,11.20
2018-10-12T18:32:37.243Z,10.00
2018-10-12T18:35:06.146Z,11.80
2018-10-12T18:37:34.875Z,10.83
2018-10-12T18:40:03.917Z,12.77
2018-10-12T18:42:32.995Z,12.90
2018-10-12T18:45:02.349Z,13.50
2018-10-12T18:47:31.049Z,12.27
2018-10-12T18:49:59.734Z,13.33
2018-10-12T18:52:28.423Z,13.40
2018-10-12T18:54:57.119Z,13.73
2018-10-12T18:57:25.855Z,14.03
2018-10-12T18:59:54.591Z,13.23
2018-10-12T19:02:23.272Z,13.07
2018-10-12T19:04:51.982Z,12.60
2018-10-12T19:07:20.638Z,12.60
2018-10-12T19:09:49.310Z,12.40
2018-10-12T19:12:17.989Z,12.33
2018-10-12T19:14:46.892Z,10.93
2018-10-12T19:17:16.393Z,10.47
2018-10-12T19:19:45.151Z,10.23
2018-10-12T19:22:14.198Z,10.73
2018-10-12T19:24:42.980Z,11.17
2018-10-12T19:27:11.607Z,10.73
2018-10-12T19:29:40.652Z,10.80
2018-10-12T19:32:09.377Z,10.70
2018-10-12T19:34:38.777Z,12.53
2018-10-12T19:37:07.710Z,13.13
2018-10-12T19:39:36.350Z,13.57
2018-10-12T19:42:05.013Z,11.83
2018-10-12T19:44:33.655Z,11.80
2018-10-12T19:47:02.288Z,12.87
2018-10-12T19:49:30.965Z,13.03
2018-10-12T19:51:59.991Z,13.20
2018-10-12T19:54:28.952Z,13.70
2018-10-12T19:56:57.599Z,12.50
2018-10-12T19:59:26.259Z,13.93
2018-10-12T20:01:55.039Z,13.83
2018-10-12T20:04:23.738Z,14.30
2018-10-12T20:06:52.365Z,13.73
2018-10-12T20:09:20.997Z,14.40
2018-10-12T20:11:49.671Z,15.07
2018-10-12T20:14:18.345Z,13.90
2018-10-12T20:16:46.987Z,14.73
2018-10-12T20:19:17.946Z,14.97
2018-10-12T20:21:46.673Z,14.70
2018-10-12T20:24:15.704Z,13.87
2018-10-12T20:26:44.333Z,13.17
2018-10-12T20:29:13.278Z,11.90
2018-10-12T20:31:42.080Z,12.27
2018-10-12T20:34:10.665Z,12.93
2018-10-12T20:36:39.359Z,12.50
2018-10-12T20:39:09.580Z,13.57
2018-10-12T20:41:38.766Z,11.20
2018-10-12T20:44:07.682Z,11.33
2018-10-12T20:46:36.924Z,10.83
2018-10-12T20:49:05.584Z,10.77
2018-10-12T20:51:34.197Z,11.00
2018-10-12T20:54:02.973Z,10.70
2018-10-12T20:56:31.608Z,9.83
2018-10-12T20:59:00.276Z,10.20
2018-10-12T21:01:28.944Z,9.77
2018-10-12T21:03:57.642Z,10.10
2018-10-12T21:06:26.308Z,10.70
2018-10-12T21:08:55.000Z,9.93
2018-10-12T21:11:23.889Z,11.10
2018-10-12T21:13:52.490Z,10.83
2018-10-12T21:16:21.160Z,10.17
2018-10-12T21:18:49.866Z,10.97
2018-10-12T21:21:18.558Z,11.27
2018-10-12T21:23:47.539Z,10.70
2018-10-12T21:26:16.596Z,12.90
2018-10-12T21:28:45.608Z,13.03
2018-10-12T21:31:14.675Z,13.20
2018-10-12T21:33:43.732Z,11.83
2018-10-12T21:36:12.725Z,12.30
2018-10-12T21:38:41.434Z,11.27
2018-10-12T21:41:10.081Z,10.10
2018-10-12T21:43:39.530Z,10.17
2018-10-12T21:46:08.181Z,11.33
2018-10-12T21:48:36.823Z,11.27
2018-10-12T21:51:05.786Z,13.33
2018-10-12T21:53:34.751Z,12.87
2018-10-12T21:56:03.681Z,14.77
2018-10-12T21:58:32.348Z,14.93
2018-10-12T22:01:04.882Z,14.93
2018-10-12T22:03:35.265Z,15.63
2018-10-12T22:06:04.173Z,16.87
2018-10-12T22:08:38.059Z,13.80
2018-10-12T22:11:07.099Z,15.47
2018-10-12T22:13:36.328Z,16.47
2018-10-12T22:16:05.150Z,18.13
2018-10-12T22:18:33.814Z,20.83
2018-10-12T22:21:03.087Z,15.63
2018-10-12T22:23:31.852Z,13.73
2018-10-12T22:26:01.312Z,14.57
2018-10-12T22:28:29.979Z,14.37
2018-10-12T22:30:58.640Z,13.70
2018-10-12T22:33:27.656Z,14.13
2018-10-12T22:35:56.375Z,13.83
2018-10-12T22:38:25.085Z,15.53
2018-10-12T22:40:53.813Z,18.63
2018-10-12T22:43:22.856Z,16.90
2018-10-12T22:45:51.526Z,17.93
2018-10-12T22:48:20.188Z,15.63
2018-10-12T22:50:48.830Z,15.93
2018-10-12T22:53:17.578Z,17.27
2018-10-12T22:55:46.203Z,15.27
2018-10-12T22:58:14.810Z,14.87
2018-10-12T23:00:43.484Z,14.00
2018-10-12T23:03:12.163Z,12.83
2018-10-12T23:05:41.020Z,12.20
2018-10-12T23:08:09.665Z,13.10
2018-10-12T23:10:38.314Z,14.20
2018-10-12T23:13:06.964Z,13.67
2018-10-12T23:15:35.660Z,14.10
2018-10-12T23:18:04.401Z,13.87
2018-10-12T23:20:33.117Z,12.87
2018-10-12T23:23:02.081Z,13.67
2018-10-12T23:25:30.792Z,13.83
2018-10-12T23:27:59.449Z,14.00
2018-10-12T23:30:28.122Z,13.70
2018-10-12T23:33:06.925Z,14.10
2018-10-12T23:35:35.581Z,13.60
2018-10-12T23:38:04.284Z,14.23
2018-10-12T23:40:32.994Z,14.67
2018-10-12T23:43:01.904Z,14.23
2018-10-12T23:45:30.821Z,13.97
2018-10-12T23:47:59.571Z,15.00
2018-10-12T23:50:28.297Z,15.47
2018-10-12T23:52:57.175Z,14.97
2018-10-12T23:55:25.846Z,14.10
2018-10-12T23:57:54.504Z,13.90
